EUFO2: Eufaula Lake

Data processed at Fri Apr 20 2018 20:10


All information presented herein is the property of the government of the United States of America and may be revised or deleted at any time without prior notice.
Dissemination of this information without the expressed written consent of the Public Affairs Office, Tulsa District U.S. Army Corps of Engineers is strictly prohibited.
These data are gathered electronically and, as presented, have not undergone any form of quality control. These data are not guaranteed to be valid or correct.
Go to home page.
Go to station list.

Upstream stations:

Downstream station:
Previous Day
Next Day
Current Day
    
SHEF ID:       EUFO2     Eufaula Lake
STATION TYPE:  RESERVOIR
Normal Pool:  Bottom =   565.00, Top =   585.00

               PRECIP ELEVATION   STORAGE   TW-ELEV    INFLOW   RELEASE  AIR-TEMP  WIND-DIRWIND-SPEED REL-HUMID SOLAR-RAD   VOLTAGE  BAT-LOAD
                   in        ft     ac-ft        ft       cfs       cfs         F       deg       mph         %      W/m2      volt      volt
              Ccp-Rev   Ccp-Rev   Ccp-Rev   Ccp-Rev  Regi-Rev  Regi-Rev   Ccp-Rev   Ccp-Rev   Ccp-Rev   Ccp-Rev   Ccp-Rev   Ccp-Rev   Ccp-Rev
(US/Central)
04/18 00:00      0.00    585.43   2235519    483.66     12969         0     75.38    161.60     11.93     42.92      0.00     13.79     13.53
04/18 01:00      0.01    585.44   2236465    483.38      8390         0     73.72    161.70     12.54     46.09      0.00     13.79     13.59
04/18 02:00      0.00    585.45   2237411    483.18      1524         0     72.84    161.00     10.01     49.44      0.00     13.79     13.59
04/18 03:00      0.12    585.46   2238356    482.98         0         0     68.88    190.80      8.43     60.62      0.00     13.79     13.59
04/18 04:00      0.00    585.41   2233628    482.87         0         0     70.32    267.80     11.75     60.01      0.00     13.79     13.42
04/18 05:00      0.00    585.43   2235519    482.77         0         0     64.62    244.80     10.25     69.84      0.00     13.79     13.42
04/18 06:00      0.00    585.42   2234574    482.69       383         0     65.93    289.00     10.32     44.26      0.00     13.79     13.59
04/18 07:00      0.00    585.45   2237411    482.66       765         0     62.85    326.50      0.91     44.93      1.00     13.79     13.53
04/18 08:00      0.00    585.37   2229845    484.16      2441       684     61.75      8.20      0.61     45.30     41.00     13.79     13.53
04/18 09:00      0.00    585.38   2230791    487.70      4116     12179     62.42     13.00      0.88     43.35    260.00     13.79     13.53
04/18 10:00      0.00    585.41   2233628    488.88      4267     12129     63.61      6.90      0.83     41.94    501.00     13.79     13.53
04/18 11:00      0.00    585.41   2233628    488.93      3970     12225     63.19     14.90      0.69     44.57    703.00     13.79     13.53
04/18 12:00      0.00    585.37   2229845    489.02      3662     12225     65.93     24.50      0.80     39.07    855.00     13.79     13.53
04/18 13:00      0.00    585.42   2234574    489.05      1986     12525     65.28    355.30      1.03     38.52    955.00     13.79     13.53
04/18 14:00      0.00    585.40   2232682    489.17       311     12225     65.05    309.70      2.05     36.81    989.00     13.79     13.53
04/18 15:00      0.00    585.35   2227954    489.14       160     12525     66.60    313.30      1.34     33.76    957.00     13.79     13.59
04/18 16:00      0.00    585.35   2227954    489.11        74     12375     67.48    338.10      0.73     29.73    859.00     13.79     13.53
04/18 17:00      0.00    585.34   2227009    489.07         0     12375     68.23    342.60      0.63     24.48    704.00     13.79     13.36
04/18 18:00      0.00    585.31   2224172    489.11        16     12375     68.88    350.80      1.51     23.50    508.00     13.80     13.59
04/18 19:00      0.00    585.29   2222280    489.11        22     12225     68.13     14.00      0.99     22.59    253.00     13.80     13.59
04/18 20:00      0.00    585.29   2222280    489.07        22     12375     65.70      1.70      0.88     26.61     71.00     13.80     13.59
04/18 21:00      0.00    585.26   2219443    489.11        22     12225     63.30      6.10      0.64     28.82      1.00     13.80     13.59
04/18 22:00      0.00    585.28   2221335    488.95        22     12225     59.56    337.60      2.89     32.84      0.00     13.79     13.59
04/18 23:00      0.00    585.27   2220389    486.62         6       460     56.26    345.60      3.93     33.39      0.00     13.79     13.59